SARFSGES

Guest
Details From SARF - FORMOSA
To SGES - GUARANI INTL
Flight Number -
Tags generated
Created
Modified
Stats Distance 198 nm / 366 km
Max Altitude 19,500 ft / 5,944 m
Waypoints 3
Social Downloads 0
Likes 0
Share VATSIM

Download

Looking for another format? Having issues loading an existing format? Contact us
Advertisement - Login to hide

Notes

Basic altitude profile: - Ascent Rate: 2500ft/min - Ascent Speed: 250kts - Cruise Altitude: 35000ft - Cruise Speed: 420kts - Descent Rate: 1500ft/min - Descent Speed: 250kts Options: - Use NATs: yes - Use PACOTS: yes - Use low airways: yes - Use high airways: yes

Route

SARF EKILO SGES

ID Type Via Altitude Latitude Longitude Leg Dist Tot Dist Heading (true) Name
O SARF APT - 0 ft / 0 m -26.21272˚ -58.22811˚ - 0 nm - FORMOSA
EKILO FIX - 19,500 ft / 5,944 m -25.35667˚ -56.61167˚ 101 nm 101 nm 60° / 59° -
O SGES APT - 0 ft / 0 m -25.45550˚ -54.84359˚ 96 nm 197 nm 94° / 93° GUARANI INTL

Altitude Profile

Advertisement - Login to hide

Weather


0- 5 10 15 20 25 30 35+ Temperature / ° C

Clouds and Precipitation
Forecast for 2017-12-18 12:00 UTC. Updated 2 hours ago

Ground ~20,000 ft ~40,000 ft Winds

SARF

Details ICAO SARF (FMA)
Name FORMOSA
Region Argentina
Timezone America/Argentina/Cordoba (UTC-3.0)
Stats Elevation 194 ft / 59 m (AMSL)
Location -26.212722° -58.228111°
Runways 1
Magnetic Variation 13.234° W

METAR

SARF 181100Z 14012KT 9999 OVC015 22/19 Q1017

Decode

TAF

TAF SARF 180500Z 1806/1906 14010KT 9999 SCT025 BKN100 TX33/1819Z TN19/1809Z PROB30 1808/18012 16015KT 8000 -TSRA SCT015 FEW050CB OVC100 BECMG 1814/1816 CAVOK PROB30 1902/1904 9999 SCT020 FEW045TCU

Decode

Departure Runways

ID Width Length Bearing (true) Bearing (mag) Surface Threshold Offset Overrun Length
04 100 ft / 30 m 5,922 ft / 1,805 m 24.88° 38.11° Asphalt 0 ft / 0 m 65 ft / 20 m
22 100 ft / 30 m 5,922 ft / 1,805 m 204.88° 218.11° Asphalt 0 ft / 0 m 65 ft / 20 m

SGES

Details ICAO SGES (AGT)
Name GUARANI INTL
Region Paraguay
Timezone America/Asuncion (UTC-3.0)
Stats Elevation 846 ft / 258 m (AMSL)
Location -25.455499° -54.843593°
Runways 1
Magnetic Variation 16.082° W

METAR

SGES 181100Z 20006KT 9999 BKN027 22/21 Q1015

Decode

TAF

TAF SGES 180612Z 1806/1906 15006KT 9999 SCT033 TX32/1819Z TN24/1810Z BECMG 1810/1813 9999 BKN033 BECMG 1815/1818 02005KT 9999 BKN027 FEW040TCU BECMG 1820/1823 6000 TS SHRA BKN020 FEW040CB

Decode

Destination Runways

ID Width Length Bearing (true) Bearing (mag) Surface Threshold Offset Overrun Length
05 148 ft / 45 m 11,175 ft / 3,406 m 40.64° 56.72° Asphalt 0 ft / 0 m 197 ft / 60 m
23 148 ft / 45 m 11,175 ft / 3,406 m 220.63° 236.71° Asphalt 0 ft / 0 m 197 ft / 60 m

Approach Navaids

Runway Type Ident Frequency Range Bearing (true) Bearing (mag) Slope Elevation
23 Localiser ICES 111.30 MHz 18 nm / 33 km 220.63° 236.71° - 846 ft / 258 m (AMSL)
23 Glidescope ICES 111.30 MHz 10 nm / 19 km 220.63° 236.71° 3.00° 804 ft / 245 m (AMSL)